<?xml version="1.0" encoding="UTF-8" standalone="yes"?>
<gpx xmlns="http://www.topografix.com/GPX/1/1" xmlns:gpxtrx="http://www.garmin.com/xmlschemas/GpxExtensions/v3" xmlns:rcxx="http://www.routeconverter.de/xmlschemas/RouteCatalogExtensions/1.0" xmlns:xsi="http://www.w3.org/2001/XMLSchema-instance" xmlns:gpxtpx="http://www.garmin.com/xmlschemas/TrackPointExtension/v1" xmlns:gpxx="http://www.garmin.com/xmlschemas/WaypointExtension/v1" xmlns:nmea="http://trekbuddy.net/2009/01/gpx/nmea" creator="Generated by Christian Pesch's RouteConverter. See http://www.routeconverter.com" version="1.1">
    <rte>
        <name>Biogasanlage Frohnhofen</name>
        <rtept lon="7.186775207519531" lat="49.92423403029809">
            <ele>446.0</ele>
            <time>2011-11-06T15:56:05.877Z</time>
            <name>Irmenach</name>
        </rtept>
        <rtept lon="7.1854448318481445" lat="49.91235213918154">
            <ele>457.0</ele>
            <time>2011-11-06T15:54:04.095Z</time>
            <name>Wegpunkt 01</name>
        </rtept>
        <rtept lon="7.181153297424316" lat="49.9107630596962">
            <ele>442.0</ele>
            <time>2011-11-06T15:54:41.177Z</time>
            <name>Wegpunkt 02</name>
        </rtept>
        <rtept lon="7.181496620178223" lat="49.90541507719444">
            <ele>406.0</ele>
            <time>2011-11-06T15:55:42.905Z</time>
            <name>Wegpunkt 03</name>
        </rtept>
        <rtept lon="7.176990509033203" lat="49.90248518164504">
            <ele>403.0</ele>
            <time>2011-11-06T16:02:31.542Z</time>
            <name>Wegpunkt 04</name>
        </rtept>
        <rtept lon="7.175703048706055" lat="49.8996656801894">
            <ele>434.0</ele>
            <time>2011-11-06T16:00:28.962Z</time>
            <name>Wegpunkt 05</name>
        </rtept>
        <rtept lon="7.181110382080078" lat="49.896597211969215">
            <ele>442.0</ele>
            <time>2011-11-06T15:58:36.415Z</time>
            <name>Wegpunkt 06</name>
        </rtept>
        <rtept lon="7.179050445556641" lat="49.89582315312933">
            <ele>442.0</ele>
            <time>2011-11-06T15:58:54.168Z</time>
            <name>Biogasanlage&quot;Faller&quot;</name>
        </rtept>
    </rte>
    <trk>
        <name>Irmenach_Kautenbach-Irmench</name>
        <trkseg>
            <trkpt lon="7.182891368865967" lat="49.925049075965504">
                <ele>424.0</ele>
                <time>2011-11-06T16:12:03.109Z</time>
                <name>NeuePosition 323</name>
            </trkpt>
            <trkpt lon="7.182633876800537" lat="49.925007633298">
                <ele>422.0</ele>
                <time>2011-11-06T16:12:04.115Z</time>
                <name>NeuePosition 2</name>
            </trkpt>
            <trkpt lon="7.18206524848938" lat="49.92488330508172">
                <ele>409.0</ele>
                <time>2011-11-06T16:12:05.121Z</time>
                <name>NeuePosition 3</name>
            </trkpt>
            <trkpt lon="7.180992364883423" lat="49.92477279084252">
                <ele>407.0</ele>
                <time>2011-11-06T16:12:06.127Z</time>
                <name>NeuePosition 4</name>
            </trkpt>
            <trkpt lon="7.180080413818359" lat="49.924710626471615">
                <ele>405.0</ele>
                <time>2011-11-06T16:12:06.630Z</time>
                <name>NeuePosition 5</name>
            </trkpt>
            <trkpt lon="7.179136276245117" lat="49.9246208333499">
                <ele>403.0</ele>
                <time>2011-11-06T16:12:06.882Z</time>
                <name>NeuePosition 6</name>
            </trkpt>
            <trkpt lon="7.1785569190979" lat="49.924586297489306">
                <ele>400.0</ele>
                <time>2011-11-06T16:12:07.008Z</time>
                <name>NeuePosition 7</name>
            </trkpt>
            <trkpt lon="7.177902460098267" lat="49.92453104006092">
                <ele>398.0</ele>
                <time>2011-11-06T16:12:07.071Z</time>
                <name>NeuePosition 8</name>
            </trkpt>
            <trkpt lon="7.177634239196777" lat="49.92448268975912">
                <ele>397.0</ele>
                <time>2011-11-06T16:12:07.102Z</time>
                <name>NeuePosition 9</name>
            </trkpt>
            <trkpt lon="7.177258729934692" lat="49.92427547363068">
                <ele>396.0</ele>
                <time>2011-11-06T16:12:07.118Z</time>
                <name>NeuePosition 10</name>
            </trkpt>
            <trkpt lon="7.177033424377441" lat="49.924123514570354">
                <ele>394.0</ele>
                <time>2011-11-06T16:12:07.126Z</time>
                <name>NeuePosition 11</name>
            </trkpt>
            <trkpt lon="7.176765203475952" lat="49.92397846229322">
                <ele>393.0</ele>
                <time>2011-11-06T16:12:07.130Z</time>
                <name>NeuePosition 12</name>
            </trkpt>
            <trkpt lon="7.176636457443237" lat="49.9238679459796">
                <ele>391.0</ele>
                <time>2011-11-06T16:12:07.132Z</time>
                <name>NeuePosition 13</name>
            </trkpt>
            <trkpt lon="7.17656135559082" lat="49.923791965867004">
                <ele>390.0</ele>
                <time>2011-11-06T16:12:07.134Z</time>
                <name>NeuePosition 14</name>
            </trkpt>
            <trkpt lon="7.176851034164429" lat="49.923501858881004">
                <ele>385.0</ele>
                <time>2011-11-06T16:12:14.813Z</time>
                <name>NeuePosition 15</name>
            </trkpt>
            <trkpt lon="7.177033424377441" lat="49.92334989738206">
                <ele>386.0</ele>
                <time>2011-11-06T16:12:18.652Z</time>
                <name>NeuePosition 16</name>
            </trkpt>
            <trkpt lon="7.17706561088562" lat="49.92300452855755">
                <ele>386.0</ele>
                <time>2011-11-06T16:12:20.572Z</time>
                <name>NeuePosition 17</name>
            </trkpt>
            <trkpt lon="7.177194356918335" lat="49.92277658377797">
                <ele>386.0</ele>
                <time>2011-11-06T16:12:21.532Z</time>
                <name>NeuePosition 18</name>
            </trkpt>
            <trkpt lon="7.1773552894592285" lat="49.922583175240966">
                <ele>387.0</ele>
                <time>2011-11-06T16:12:22.012Z</time>
                <name>NeuePosition 19</name>
            </trkpt>
            <trkpt lon="7.177494764328003" lat="49.92238976592805">
                <ele>389.0</ele>
                <time>2011-11-06T16:12:22.252Z</time>
                <name>NeuePosition 20</name>
            </trkpt>
            <trkpt lon="7.1776556968688965" lat="49.92224470843414">
                <ele>390.0</ele>
                <time>2011-11-06T16:12:22.372Z</time>
                <name>NeuePosition 21</name>
            </trkpt>
            <trkpt lon="7.177773714065552" lat="49.92214109567128">
                <ele>391.0</ele>
                <time>2011-11-06T16:12:22.432Z</time>
                <name>NeuePosition 22</name>
            </trkpt>
            <trkpt lon="7.177720069885254" lat="49.92198912988291">
                <ele>392.0</ele>
                <time>2011-11-06T16:12:22.462Z</time>
                <name>NeuePosition 23</name>
            </trkpt>
            <trkpt lon="7.177602052688599" lat="49.921816440905616">
                <ele>392.0</ele>
                <time>2011-11-06T16:12:22.477Z</time>
                <name>NeuePosition 24</name>
            </trkpt>
            <trkpt lon="7.1773552894592285" lat="49.9218026257607">
                <ele>393.0</ele>
                <time>2011-11-06T16:12:22.484Z</time>
                <name>NeuePosition 25</name>
            </trkpt>
            <trkpt lon="7.177033424377441" lat="49.921947684584794">
                <ele>393.0</ele>
                <time>2011-11-06T16:12:22.488Z</time>
                <name>NeuePosition 26</name>
            </trkpt>
            <trkpt lon="7.176733016967773" lat="49.92209274297238">
                <ele>392.0</ele>
                <time>2011-11-06T16:12:22.490Z</time>
                <name>NeuePosition 27</name>
            </trkpt>
            <trkpt lon="7.17656135559082" lat="49.92210655803417">
                <ele>370.0</ele>
                <time>2011-11-06T16:12:22.492Z</time>
                <name>NeuePosition 28</name>
            </trkpt>
            <trkpt lon="7.176196575164795" lat="49.92219635583919">
                <ele>392.0</ele>
                <time>2011-11-06T16:12:25.515Z</time>
                <name>NeuePosition 29</name>
            </trkpt>
            <trkpt lon="7.175799608230591" lat="49.92216872576316">
                <ele>392.0</ele>
                <time>2011-11-06T16:12:27.027Z</time>
                <name>NeuePosition 30</name>
            </trkpt>
            <trkpt lon="7.175627946853638" lat="49.92209965050379">
                <ele>392.0</ele>
                <time>2011-11-06T16:12:27.783Z</time>
                <name>NeuePosition 31</name>
            </trkpt>
            <trkpt lon="7.175381183624268" lat="49.92196149968811">
                <ele>393.0</ele>
                <time>2011-11-06T16:12:28.161Z</time>
                <name>NeuePosition 32</name>
            </trkpt>
            <trkpt lon="7.175112962722778" lat="49.92183025604657">
                <ele>393.0</ele>
                <time>2011-11-06T16:12:31.374Z</time>
                <name>NeuePosition 33</name>
            </trkpt>
            <trkpt lon="7.175016403198242" lat="49.921733549976786">
                <ele>393.0</ele>
                <time>2011-11-06T16:12:32.980Z</time>
                <name>NeuePosition 34</name>
            </trkpt>
            <trkpt lon="7.17507004737854" lat="49.92162993611533">
                <ele>385.0</ele>
                <time>2011-11-06T16:12:34.587Z</time>
                <name>NeuePosition 35</name>
            </trkpt>
            <trkpt lon="7.176185846328735" lat="49.92121547844264">
                <ele>398.0</ele>
                <time>2011-11-06T16:12:37.353Z</time>
                <name>NeuePosition 36</name>
            </trkpt>
            <trkpt lon="7.176496982574463" lat="49.92098061751322">
                <ele>399.0</ele>
                <time>2011-11-06T16:12:40.120Z</time>
                <name>NeuePosition 37</name>
            </trkpt>
            <trkpt lon="7.176614999771118" lat="49.92062141623167">
                <ele>403.0</ele>
                <time>2011-11-06T16:12:45.653Z</time>
                <name>NeuePosition 38</name>
            </trkpt>
            <trkpt lon="7.176872491836548" lat="49.91955070422628">
                <ele>412.0</ele>
                <time>2011-11-06T16:12:56.719Z</time>
                <name>NeuePosition 258</name>
            </trkpt>
            <trkpt lon="7.173900604248047" lat="49.91865266937085">
                <ele>400.0</ele>
                <time>2011-11-06T16:14:02.853Z</time>
                <name>NeuePosition 40</name>
            </trkpt>
            <trkpt lon="7.169952392578125" lat="49.917961861946246">
                <ele>402.0</ele>
                <time>2011-11-06T16:15:21.381Z</time>
                <name>NeuePosition 41</name>
            </trkpt>
            <trkpt lon="7.168149948120117" lat="49.917989494433264">
                <ele>399.0</ele>
                <time>2011-11-06T16:15:55.713Z</time>
                <name>NeuePosition 42</name>
            </trkpt>
            <trkpt lon="7.166690826416016" lat="49.918100024222966">
                <ele>398.0</ele>
                <time>2011-11-06T16:16:23.688Z</time>
                <name>NeuePosition 43</name>
            </trkpt>
            <trkpt lon="7.1651458740234375" lat="49.917934229443404">
                <ele>395.0</ele>
                <time>2011-11-06T16:16:53.510Z</time>
                <name>NeuePosition 44</name>
            </trkpt>
            <trkpt lon="7.163686752319336" lat="49.91785133183984">
                <ele>387.0</ele>
                <time>2011-11-06T16:17:21.401Z</time>
                <name>NeuePosition 45</name>
            </trkpt>
            <trkpt lon="7.162055969238281" lat="49.91774080148005">
                <ele>385.0</ele>
                <time>2011-11-06T16:17:52.623Z</time>
                <name>NeuePosition 46</name>
            </trkpt>
            <trkpt lon="7.160253524780273" lat="49.917602638174">
                <ele>388.0</ele>
                <time>2011-11-06T16:18:27.184Z</time>
                <name>NeuePosition 47</name>
            </trkpt>
            <trkpt lon="7.159609794616699" lat="49.91768553620514">
                <ele>386.0</ele>
                <time>2011-11-06T16:18:39.682Z</time>
                <name>NeuePosition 48</name>
            </trkpt>
            <trkpt lon="7.159051895141602" lat="49.918072391799285">
                <ele>379.0</ele>
                <time>2011-11-06T16:18:55.269Z</time>
                <name>NeuePosition 49</name>
            </trkpt>
            <trkpt lon="7.158408164978027" lat="49.917961861946246">
                <ele>378.0</ele>
                <time>2011-11-06T16:19:07.951Z</time>
                <name>NeuePosition 50</name>
            </trkpt>
            <trkpt lon="7.157764434814453" lat="49.917961861946246">
                <ele>378.0</ele>
                <time>2011-11-06T16:19:20.207Z</time>
                <name>NeuePosition 51</name>
            </trkpt>
            <trkpt lon="7.15733528137207" lat="49.91801712690446">
                <ele>380.0</ele>
                <time>2011-11-06T16:19:28.538Z</time>
                <name>NeuePosition 52</name>
            </trkpt>
            <trkpt lon="7.156820297241211" lat="49.917436841684165">
                <ele>369.0</ele>
                <time>2011-11-06T16:19:51.142Z</time>
                <name>NeuePosition 53</name>
            </trkpt>
            <trkpt lon="7.155404090881348" lat="49.91801712690446">
                <ele>394.0</ele>
                <time>2011-11-06T16:20:27.745Z</time>
                <name>NeuePosition 54</name>
            </trkpt>
            <trkpt lon="7.153987884521484" lat="49.91851450867771">
                <ele>395.0</ele>
                <time>2011-11-06T16:21:02.926Z</time>
                <name>NeuePosition 55</name>
            </trkpt>
            <trkpt lon="7.154760360717773" lat="49.919039517205455">
                <ele>375.0</ele>
                <time>2011-11-06T16:21:27.400Z</time>
                <name>NeuePosition 56</name>
            </trkpt>
            <trkpt lon="7.153301239013672" lat="49.91928820346011">
                <ele>384.0</ele>
                <time>2011-11-06T16:22:00.330Z</time>
                <name>NeuePosition 57</name>
            </trkpt>
            <trkpt lon="7.152281999588013" lat="49.91942636193625">
                <ele>377.0</ele>
                <time>2011-11-06T16:22:23.055Z</time>
                <name>NeuePosition 58</name>
            </trkpt>
            <trkpt lon="7.151992321014404" lat="49.919419454021856">
                <ele>376.0</ele>
                <time>2011-11-06T16:22:29.380Z</time>
                <name>NeuePosition 59</name>
            </trkpt>
            <trkpt lon="7.151756286621094" lat="49.91937800651465">
                <ele>376.0</ele>
                <time>2011-11-06T16:22:34.717Z</time>
                <name>NeuePosition 60</name>
            </trkpt>
            <trkpt lon="7.151520252227783" lat="49.919336558971814">
                <ele>375.0</ele>
                <time>2011-11-06T16:22:40.054Z</time>
                <name>NeuePosition 61</name>
            </trkpt>
            <trkpt lon="7.151241302490234" lat="49.919267479654565">
                <ele>375.0</ele>
                <time>2011-11-06T16:22:46.572Z</time>
                <name>NeuePosition 62</name>
            </trkpt>
            <trkpt lon="7.150994539260864" lat="49.9191914922913">
                <ele>375.0</ele>
                <time>2011-11-06T16:22:52.536Z</time>
                <name>NeuePosition 63</name>
            </trkpt>
            <trkpt lon="7.150758504867554" lat="49.91910859684931">
                <ele>373.0</ele>
                <time>2011-11-06T16:22:58.397Z</time>
                <name>NeuePosition 64</name>
            </trkpt>
            <trkpt lon="7.150629758834839" lat="49.91905333314216">
                <ele>371.0</ele>
                <time>2011-11-06T16:23:01.769Z</time>
                <name>NeuePosition 65</name>
            </trkpt>
            <trkpt lon="7.150543928146362" lat="49.91903260923562">
                <ele>370.0</ele>
                <time>2011-11-06T16:23:03.767Z</time>
                <name>NeuePosition 66</name>
            </trkpt>
            <trkpt lon="7.150307893753052" lat="49.91917767639419">
                <ele>366.0</ele>
                <time>2011-11-06T16:23:10.872Z</time>
                <name>NeuePosition 67</name>
            </trkpt>
            <trkpt lon="7.150125503540039" lat="49.919267479654565">
                <ele>361.0</ele>
                <time>2011-11-06T16:23:15.872Z</time>
                <name>NeuePosition 68</name>
            </trkpt>
            <trkpt lon="7.149910926818848" lat="49.91930201932554">
                <ele>357.0</ele>
                <time>2011-11-06T16:23:20.692Z</time>
                <name>NeuePosition 69</name>
            </trkpt>
            <trkpt lon="7.149728536605835" lat="49.91928129552593">
                <ele>353.0</ele>
                <time>2011-11-06T16:23:24.728Z</time>
                <name>NeuePosition 70</name>
            </trkpt>
            <trkpt lon="7.149556875228882" lat="49.9192260320167">
                <ele>350.0</ele>
                <time>2011-11-06T16:23:28.908Z</time>
                <name>NeuePosition 71</name>
            </trkpt>
            <trkpt lon="7.149481773376465" lat="49.919143136634126">
                <ele>349.0</ele>
                <time>2011-11-06T16:23:32.149Z</time>
                <name>NeuePosition 72</name>
            </trkpt>
            <trkpt lon="7.149578332901001" lat="49.91899116139588">
                <ele>348.0</ele>
                <time>2011-11-06T16:23:37.692Z</time>
                <name>NeuePosition 73</name>
            </trkpt>
            <trkpt lon="7.149717807769775" lat="49.91884609367613">
                <ele>350.0</ele>
                <time>2011-11-06T16:23:43.453Z</time>
                <name>NeuePosition 74</name>
            </trkpt>
            <trkpt lon="7.149803638458252" lat="49.91874247360908">
                <ele>350.0</ele>
                <time>2011-11-06T16:23:47.417Z</time>
                <name>NeuePosition 75</name>
            </trkpt>
            <trkpt lon="7.149782180786133" lat="49.918645761345594">
                <ele>348.0</ele>
                <time>2011-11-06T16:23:50.712Z</time>
                <name>NeuePosition 76</name>
            </trkpt>
            <trkpt lon="7.149771451950073" lat="49.91851450867771">
                <ele>346.0</ele>
                <time>2011-11-06T16:23:55.144Z</time>
                <name>NeuePosition 77</name>
            </trkpt>
            <trkpt lon="7.14985728263855" lat="49.918459244289615">
                <ele>348.0</ele>
                <time>2011-11-06T16:23:57.783Z</time>
                <name>NeuePosition 78</name>
            </trkpt>
            <trkpt lon="7.150007486343384" lat="49.9183487153234">
                <ele>351.0</ele>
                <time>2011-11-06T16:24:02.741Z</time>
                <name>NeuePosition 79</name>
            </trkpt>
            <trkpt lon="7.150146961212158" lat="49.91825891035175">
                <ele>355.0</ele>
                <time>2011-11-06T16:24:07.029Z</time>
                <name>NeuePosition 80</name>
            </trkpt>
            <trkpt lon="7.150200605392456" lat="49.91814838092628">
                <ele>356.0</ele>
                <time>2011-11-06T16:24:10.934Z</time>
                <name>NeuePosition 81</name>
            </trkpt>
            <trkpt lon="7.150200605392456" lat="49.917982586313">
                <ele>354.0</ele>
                <time>2011-11-06T16:24:16.523Z</time>
                <name>NeuePosition 82</name>
            </trkpt>
            <trkpt lon="7.150146961212158" lat="49.91786514811699">
                <ele>352.0</ele>
                <time>2011-11-06T16:24:20.650Z</time>
                <name>NeuePosition 83</name>
            </trkpt>
            <trkpt lon="7.150028944015503" lat="49.91766481171073">
                <ele>346.0</ele>
                <time>2011-11-06T16:24:27.874Z</time>
                <name>NeuePosition 84</name>
            </trkpt>
            <trkpt lon="7.149868011474609" lat="49.917436841684165">
                <ele>337.0</ele>
                <time>2011-11-06T16:24:36.317Z</time>
                <name>NeuePosition 85</name>
            </trkpt>
            <trkpt lon="7.149707078933716" lat="49.91725031995168">
                <ele>326.0</ele>
                <time>2011-11-06T16:24:43.512Z</time>
                <name>NeuePosition 86</name>
            </trkpt>
            <trkpt lon="7.149524688720703" lat="49.917056889244755">
                <ele>316.0</ele>
                <time>2011-11-06T16:24:51.143Z</time>
                <name>NeuePosition 87</name>
            </trkpt>
            <trkpt lon="7.149374485015869" lat="49.916918723979">
                <ele>310.0</ele>
                <time>2011-11-06T16:24:56.831Z</time>
                <name>NeuePosition 88</name>
            </trkpt>
            <trkpt lon="7.149299383163452" lat="49.91675292513754">
                <ele>306.0</ele>
                <time>2011-11-06T16:25:02.651Z</time>
                <name>NeuePosition 89</name>
            </trkpt>
            <trkpt lon="7.14935302734375" lat="49.91661475900082">
                <ele>305.0</ele>
                <time>2011-11-06T16:25:07.450Z</time>
                <name>NeuePosition 90</name>
            </trkpt>
            <trkpt lon="7.149320840835571" lat="49.916497317473336">
                <ele>301.0</ele>
                <time>2011-11-06T16:25:11.468Z</time>
                <name>NeuePosition 91</name>
            </trkpt>
            <trkpt lon="7.149288654327393" lat="49.916393692358625">
                <ele>298.0</ele>
                <time>2011-11-06T16:25:15.028Z</time>
                <name>NeuePosition 92</name>
            </trkpt>
            <trkpt lon="7.149213552474976" lat="49.91624170845417">
                <ele>294.0</ele>
                <time>2011-11-06T16:25:20.401Z</time>
                <name>NeuePosition 93</name>
            </trkpt>
            <trkpt lon="7.149406671524048" lat="49.91622098333918">
                <ele>295.0</ele>
                <time>2011-11-06T16:25:24.658Z</time>
                <name>NeuePosition 94</name>
            </trkpt>
            <trkpt lon="7.150050401687622" lat="49.91618644146107">
                <ele>301.0</ele>
                <time>2011-11-06T16:25:38.704Z</time>
                <name>NeuePosition 95</name>
            </trkpt>
            <trkpt lon="7.150393724441528" lat="49.91614499117467">
                <ele>302.0</ele>
                <time>2011-11-06T16:25:46.298Z</time>
                <name>NeuePosition 96</name>
            </trkpt>
            <trkpt lon="7.150672674179077" lat="49.91611044924211">
                <ele>302.0</ele>
                <time>2011-11-06T16:25:52.473Z</time>
                <name>NeuePosition 97</name>
            </trkpt>
            <trkpt lon="7.150822877883911" lat="49.91615189955821">
                <ele>305.0</ele>
                <time>2011-11-06T16:25:56.024Z</time>
                <name>NeuePosition 98</name>
            </trkpt>
            <trkpt lon="7.151058912277222" lat="49.916062090494975">
                <ele>304.0</ele>
                <time>2011-11-06T16:26:01.979Z</time>
                <name>NeuePosition 99</name>
            </trkpt>
            <trkpt lon="7.151294946670532" lat="49.91595155603367">
                <ele>302.0</ele>
                <time>2011-11-06T16:26:08.316Z</time>
                <name>NeuePosition 100</name>
            </trkpt>
            <trkpt lon="7.151466608047485" lat="49.91579957073566">
                <ele>297.0</ele>
                <time>2011-11-06T16:26:13.350Z</time>
                <name>NeuePosition 101</name>
            </trkpt>
            <trkpt lon="7.151573896408081" lat="49.91572357790702">
                <ele>298.0</ele>
                <time>2011-11-06T16:26:16.101Z</time>
                <name>NeuePosition 102</name>
            </trkpt>
            <trkpt lon="7.151659727096558" lat="49.91561304266974">
                <ele>297.0</ele>
                <time>2011-11-06T16:26:19.409Z</time>
                <name>NeuePosition 103</name>
            </trkpt>
            <trkpt lon="7.151648998260498" lat="49.91555086648745">
                <ele>296.0</ele>
                <time>2011-11-06T16:26:21.082Z</time>
                <name>NeuePosition 104</name>
            </trkpt>
            <trkpt lon="7.151616811752319" lat="49.915467964786316">
                <ele>294.0</ele>
                <time>2011-11-06T16:26:23.367Z</time>
                <name>NeuePosition 105</name>
            </trkpt>
            <trkpt lon="7.151552438735962" lat="49.91537815444926">
                <ele>293.0</ele>
                <time>2011-11-06T16:26:26.012Z</time>
                <name>NeuePosition 106</name>
            </trkpt>
            <trkpt lon="7.151648998260498" lat="49.915233075859135">
                <ele>291.0</ele>
                <time>2011-11-06T16:26:30.232Z</time>
                <name>NeuePosition 107</name>
            </trkpt>
            <trkpt lon="7.1518635749816895" lat="49.91501891142837">
                <ele>290.0</ele>
                <time>2011-11-06T16:26:37.048Z</time>
                <name>NeuePosition 108</name>
            </trkpt>
            <trkpt lon="7.152003049850464" lat="49.914825471770115">
                <ele>295.0</ele>
                <time>2011-11-06T16:26:42.749Z</time>
                <name>NeuePosition 109</name>
            </trkpt>
            <trkpt lon="7.152153253555298" lat="49.91464584853552">
                <ele>298.0</ele>
                <time>2011-11-06T16:26:48.203Z</time>
                <name>NeuePosition 110</name>
            </trkpt>
            <trkpt lon="7.152271270751953" lat="49.914507676361296">
                <ele>299.0</ele>
                <time>2011-11-06T16:26:52.418Z</time>
                <name>NeuePosition 111</name>
            </trkpt>
            <trkpt lon="7.152442932128906" lat="49.91445240738076">
                <ele>297.0</ele>
                <time>2011-11-06T16:26:55.726Z</time>
                <name>NeuePosition 112</name>
            </trkpt>
            <trkpt lon="7.152582406997681" lat="49.91439022970193">
                <ele>297.0</ele>
                <time>2011-11-06T16:26:58.648Z</time>
                <name>NeuePosition 113</name>
            </trkpt>
            <trkpt lon="7.152925729751587" lat="49.914314234652274">
                <ele>297.0</ele>
                <time>2011-11-06T16:27:04.905Z</time>
                <name>NeuePosition 114</name>
            </trkpt>
            <trkpt lon="7.153172492980957" lat="49.91427278275651">
                <ele>296.0</ele>
                <time>2011-11-06T16:27:09.300Z</time>
                <name>NeuePosition 115</name>
            </trkpt>
            <trkpt lon="7.153408527374268" lat="49.91430041735766">
                <ele>297.0</ele>
                <time>2011-11-06T16:27:13.434Z</time>
                <name>NeuePosition 116</name>
            </trkpt>
            <trkpt lon="7.153505086898804" lat="49.914314234652274">
                <ele>298.0</ele>
                <time>2011-11-06T16:27:15.138Z</time>
                <name>NeuePosition 117</name>
            </trkpt>
            <trkpt lon="7.153644561767578" lat="49.91430041735766">
                <ele>298.0</ele>
                <time>2011-11-06T16:27:17.569Z</time>
                <name>NeuePosition 118</name>
            </trkpt>
            <trkpt lon="7.153805494308472" lat="49.91427278275651">
                <ele>299.0</ele>
                <time>2011-11-06T16:27:20.437Z</time>
                <name>NeuePosition 119</name>
            </trkpt>
            <trkpt lon="7.15409517288208" lat="49.914238239482856">
                <ele>299.0</ele>
                <time>2011-11-06T16:27:25.510Z</time>
                <name>NeuePosition 120</name>
            </trkpt>
            <trkpt lon="7.154438495635986" lat="49.914155335525074">
                <ele>297.0</ele>
                <time>2011-11-06T16:27:31.822Z</time>
                <name>NeuePosition 121</name>
            </trkpt>
            <trkpt lon="7.154814004898071" lat="49.91405861406088">
                <ele>298.0</ele>
                <time>2011-11-06T16:27:38.783Z</time>
                <name>NeuePosition 122</name>
            </trkpt>
            <trkpt lon="7.155189514160156" lat="49.91396189240267">
                <ele>302.0</ele>
                <time>2011-11-06T16:27:45.744Z</time>
                <name>NeuePosition 123</name>
            </trkpt>
            <trkpt lon="7.155318260192871" lat="49.913906622796596">
                <ele>304.0</ele>
                <time>2011-11-06T16:27:48.405Z</time>
                <name>NeuePosition 124</name>
            </trkpt>
            <trkpt lon="7.155500650405884" lat="49.913809900833535">
                <ele>305.0</ele>
                <time>2011-11-06T16:27:52.467Z</time>
                <name>NeuePosition 125</name>
            </trkpt>
            <trkpt lon="7.155629396438599" lat="49.913685543738865">
                <ele>305.0</ele>
                <time>2011-11-06T16:27:56.453Z</time>
                <name>NeuePosition 126</name>
            </trkpt>
            <trkpt lon="7.155736684799194" lat="49.913540460056424">
                <ele>303.0</ele>
                <time>2011-11-06T16:28:00.737Z</time>
                <name>NeuePosition 127</name>
            </trkpt>
            <trkpt lon="7.15585470199585" lat="49.91340228471495">
                <ele>300.0</ele>
                <time>2011-11-06T16:28:04.941Z</time>
                <name>NeuePosition 128</name>
            </trkpt>
            <trkpt lon="7.1559834480285645" lat="49.91325029138206">
                <ele>303.0</ele>
                <time>2011-11-06T16:28:08.079Z</time>
                <name>NeuePosition 129</name>
            </trkpt>
            <trkpt lon="7.156112194061279" lat="49.91315356810261">
                <ele>306.0</ele>
                <time>2011-11-06T16:28:10.389Z</time>
                <name>NeuePosition 130</name>
            </trkpt>
            <trkpt lon="7.156219482421875" lat="49.91304302697428">
                <ele>308.0</ele>
                <time>2011-11-06T16:28:12.751Z</time>
                <name>NeuePosition 131</name>
            </trkpt>
            <trkpt lon="7.156283855438232" lat="49.91294630327914">
                <ele>309.0</ele>
                <time>2011-11-06T16:28:14.657Z</time>
                <name>NeuePosition 132</name>
            </trkpt>
            <trkpt lon="7.156358957290649" lat="49.91284267053336">
                <ele>309.0</ele>
                <time>2011-11-06T16:28:16.728Z</time>
                <name>NeuePosition 133</name>
            </trkpt>
            <trkpt lon="7.156401872634888" lat="49.912780490779">
                <ele>309.0</ele>
                <time>2011-11-06T16:28:17.960Z</time>
                <name>NeuePosition 134</name>
            </trkpt>
            <trkpt lon="7.156358957290649" lat="49.912683766557286">
                <ele>308.0</ele>
                <time>2011-11-06T16:28:19.780Z</time>
                <name>NeuePosition 135</name>
            </trkpt>
            <trkpt lon="7.156369686126709" lat="49.91260085992715">
                <ele>307.0</ele>
                <time>2011-11-06T16:28:21.284Z</time>
                <name>NeuePosition 136</name>
            </trkpt>
            <trkpt lon="7.1563804149627686" lat="49.9124764997147">
                <ele>306.0</ele>
                <time>2011-11-06T16:28:23.535Z</time>
                <name>NeuePosition 137</name>
            </trkpt>
            <trkpt lon="7.156412601470947" lat="49.91235904810845">
                <ele>307.0</ele>
                <time>2011-11-06T16:28:25.690Z</time>
                <name>NeuePosition 138</name>
            </trkpt>
            <trkpt lon="7.156509160995483" lat="49.91220014253884">
                <ele>308.0</ele>
                <time>2011-11-06T16:28:28.774Z</time>
                <name>NeuePosition 139</name>
            </trkpt>
            <trkpt lon="7.156616449356079" lat="49.91206196335707">
                <ele>307.0</ele>
                <time>2011-11-06T16:28:31.566Z</time>
                <name>NeuePosition 140</name>
            </trkpt>
            <trkpt lon="7.156745195388794" lat="49.911972146676604">
                <ele>308.0</ele>
                <time>2011-11-06T16:28:33.776Z</time>
                <name>NeuePosition 141</name>
            </trkpt>
            <trkpt lon="7.1569061279296875" lat="49.911827057839425">
                <ele>309.0</ele>
                <time>2011-11-06T16:28:36.998Z</time>
                <name>NeuePosition 142</name>
            </trkpt>
            <trkpt lon="7.157024145126343" lat="49.91172342268851">
                <ele>309.0</ele>
                <time>2011-11-06T16:28:39.320Z</time>
                <name>NeuePosition 143</name>
            </trkpt>
            <trkpt lon="7.157313823699951" lat="49.911550696942044">
                <ele>311.0</ele>
                <time>2011-11-06T16:28:43.915Z</time>
                <name>NeuePosition 144</name>
            </trkpt>
            <trkpt lon="7.15760350227356" lat="49.911384879643464">
                <ele>315.0</ele>
                <time>2011-11-06T16:28:48.426Z</time>
                <name>NeuePosition 145</name>
            </trkpt>
            <trkpt lon="7.157732248306274" lat="49.911315788934125">
                <ele>316.0</ele>
                <time>2011-11-06T16:28:50.376Z</time>
                <name>NeuePosition 146</name>
            </trkpt>
            <trkpt lon="7.157936096191406" lat="49.91121906177475">
                <ele>317.0</ele>
                <time>2011-11-06T16:28:53.322Z</time>
                <name>NeuePosition 147</name>
            </trkpt>
            <trkpt lon="7.158268690109253" lat="49.91111542531731">
                <ele>316.0</ele>
                <time>2011-11-06T16:28:57.622Z</time>
                <name>NeuePosition 148</name>
            </trkpt>
            <trkpt lon="7.158612012863159" lat="49.91102560687406">
                <ele>315.0</ele>
                <time>2011-11-06T16:29:01.935Z</time>
                <name>NeuePosition 149</name>
            </trkpt>
            <trkpt lon="7.158901691436768" lat="49.9109910612744">
                <ele>316.0</ele>
                <time>2011-11-06T16:29:05.364Z</time>
                <name>NeuePosition 150</name>
            </trkpt>
            <trkpt lon="7.159255743026733" lat="49.91094269739337">
                <ele>316.0</ele>
                <time>2011-11-06T16:29:09.576Z</time>
                <name>NeuePosition 151</name>
            </trkpt>
            <trkpt lon="7.159491777420044" lat="49.91092197000091">
                <ele>317.0</ele>
                <time>2011-11-06T16:29:12.348Z</time>
                <name>NeuePosition 152</name>
            </trkpt>
            <trkpt lon="7.159749269485474" lat="49.91088742432703">
                <ele>316.0</ele>
                <time>2011-11-06T16:29:15.408Z</time>
                <name>NeuePosition 153</name>
            </trkpt>
            <trkpt lon="7.1600282192230225" lat="49.910866696910816">
                <ele>317.0</ele>
                <time>2011-11-06T16:29:18.675Z</time>
                <name>NeuePosition 154</name>
            </trkpt>
            <trkpt lon="7.160296440124512" lat="49.910818332905045">
                <ele>318.0</ele>
                <time>2011-11-06T16:29:21.915Z</time>
                <name>NeuePosition 155</name>
            </trkpt>
            <trkpt lon="7.160532474517822" lat="49.91075615054063">
                <ele>320.0</ele>
                <time>2011-11-06T16:29:24.880Z</time>
                <name>NeuePosition 156</name>
            </trkpt>
            <trkpt lon="7.160811424255371" lat="49.91066633142826">
                <ele>323.0</ele>
                <time>2011-11-06T16:29:28.505Z</time>
                <name>NeuePosition 157</name>
            </trkpt>
            <trkpt lon="7.161004543304443" lat="49.91061105804522">
                <ele>323.0</ele>
                <time>2011-11-06T16:29:30.961Z</time>
                <name>NeuePosition 158</name>
            </trkpt>
            <trkpt lon="7.161294221878052" lat="49.91054887541358">
                <ele>322.0</ele>
                <time>2011-11-06T16:29:34.510Z</time>
                <name>NeuePosition 159</name>
            </trkpt>
            <trkpt lon="7.161519527435303" lat="49.91053505704009">
                <ele>322.0</ele>
                <time>2011-11-06T16:29:37.141Z</time>
                <name>NeuePosition 160</name>
            </trkpt>
            <trkpt lon="7.161734104156494" lat="49.91056269378308">
                <ele>322.0</ele>
                <time>2011-11-06T16:29:39.684Z</time>
                <name>NeuePosition 161</name>
            </trkpt>
            <trkpt lon="7.161905765533447" lat="49.91060414886789">
                <ele>322.0</ele>
                <time>2011-11-06T16:29:41.814Z</time>
                <name>NeuePosition 162</name>
            </trkpt>
            <trkpt lon="7.16208815574646" lat="49.91066633142826">
                <ele>322.0</ele>
                <time>2011-11-06T16:29:44.211Z</time>
                <name>NeuePosition 163</name>
            </trkpt>
            <trkpt lon="7.1623241901397705" lat="49.91081142375739">
                <ele>320.0</ele>
                <time>2011-11-06T16:29:47.998Z</time>
                <name>NeuePosition 164</name>
            </trkpt>
            <trkpt lon="7.162517309188843" lat="49.91087360605054">
                <ele>320.0</ele>
                <time>2011-11-06T16:29:50.505Z</time>
                <name>NeuePosition 165</name>
            </trkpt>
            <trkpt lon="7.1626996994018555" lat="49.91089433346378">
                <ele>321.0</ele>
                <time>2011-11-06T16:29:52.656Z</time>
                <name>NeuePosition 166</name>
            </trkpt>
            <trkpt lon="7.162903547286987" lat="49.9109288791327">
                <ele>323.0</ele>
                <time>2011-11-06T16:29:55.103Z</time>
                <name>NeuePosition 167</name>
            </trkpt>
            <trkpt lon="7.16307520866394" lat="49.91097033390277">
                <ele>323.0</ele>
                <time>2011-11-06T16:29:57.230Z</time>
                <name>NeuePosition 168</name>
            </trkpt>
            <trkpt lon="7.163225412368774" lat="49.91103251599101">
                <ele>324.0</ele>
                <time>2011-11-06T16:30:00.239Z</time>
                <name>NeuePosition 169</name>
            </trkpt>
            <trkpt lon="7.1633219718933105" lat="49.91139178870894">
                <ele>326.0</ele>
                <time>2011-11-06T16:30:05.548Z</time>
                <name>NeuePosition 170</name>
            </trkpt>
            <trkpt lon="7.163268327713013" lat="49.9117856038058">
                <ele>331.0</ele>
                <time>2011-11-06T16:30:11.303Z</time>
                <name>NeuePosition 171</name>
            </trkpt>
            <trkpt lon="7.163193225860596" lat="49.91213105299746">
                <ele>337.0</ele>
                <time>2011-11-06T16:30:16.381Z</time>
                <name>NeuePosition 172</name>
            </trkpt>
            <trkpt lon="7.163279056549072" lat="49.912213960435245">
                <ele>334.0</ele>
                <time>2011-11-06T16:30:18.090Z</time>
                <name>NeuePosition 173</name>
            </trkpt>
            <trkpt lon="7.163482904434204" lat="49.91235213918154">
                <ele>335.0</ele>
                <time>2011-11-06T16:30:21.360Z</time>
                <name>NeuePosition 174</name>
            </trkpt>
            <trkpt lon="7.163729667663574" lat="49.91245577298144">
                <ele>336.0</ele>
                <time>2011-11-06T16:30:24.616Z</time>
                <name>NeuePosition 175</name>
            </trkpt>
            <trkpt lon="7.163987159729004" lat="49.912524862057644">
                <ele>336.0</ele>
                <time>2011-11-06T16:30:27.700Z</time>
                <name>NeuePosition 176</name>
            </trkpt>
            <trkpt lon="7.164244651794434" lat="49.91261467770873">
                <ele>339.0</ele>
                <time>2011-11-06T16:30:30.936Z</time>
                <name>NeuePosition 177</name>
            </trkpt>
            <trkpt lon="7.164523601531982" lat="49.91265613102976">
                <ele>342.0</ele>
                <time>2011-11-06T16:30:34.101Z</time>
                <name>NeuePosition 178</name>
            </trkpt>
            <trkpt lon="7.164931297302246" lat="49.912711402069014">
                <ele>346.0</ele>
                <time>2011-11-06T16:30:38.707Z</time>
                <name>NeuePosition 179</name>
            </trkpt>
            <trkpt lon="7.16509222984314" lat="49.912690675436714">
                <ele>346.0</ele>
                <time>2011-11-06T16:30:40.521Z</time>
                <name>NeuePosition 180</name>
            </trkpt>
            <trkpt lon="7.1652209758758545" lat="49.91265613102976">
                <ele>347.0</ele>
                <time>2011-11-06T16:30:42.062Z</time>
                <name>NeuePosition 181</name>
            </trkpt>
            <trkpt lon="7.165360450744629" lat="49.91258704214159">
                <ele>345.0</ele>
                <time>2011-11-06T16:30:44.004Z</time>
                <name>NeuePosition 182</name>
            </trkpt>
            <trkpt lon="7.165457010269165" lat="49.912469590804584">
                <ele>342.0</ele>
                <time>2011-11-06T16:30:46.278Z</time>
                <name>NeuePosition 183</name>
            </trkpt>
            <trkpt lon="7.165510654449463" lat="49.91233141239485">
                <ele>341.0</ele>
                <time>2011-11-06T16:30:48.714Z</time>
                <name>NeuePosition 184</name>
            </trkpt>
            <trkpt lon="7.16558575630188" lat="49.91216559778053">
                <ele>339.0</ele>
                <time>2011-11-06T16:30:51.668Z</time>
                <name>NeuePosition 185</name>
            </trkpt>
            <trkpt lon="7.16557502746582" lat="49.91204814541713">
                <ele>337.0</ele>
                <time>2011-11-06T16:30:53.679Z</time>
                <name>NeuePosition 186</name>
            </trkpt>
            <trkpt lon="7.165617942810059" lat="49.91190996579984">
                <ele>335.0</ele>
                <time>2011-11-06T16:30:56.087Z</time>
                <name>NeuePosition 187</name>
            </trkpt>
            <trkpt lon="7.165660858154297" lat="49.9117856038058">
                <ele>333.0</ele>
                <time>2011-11-06T16:30:58.264Z</time>
                <name>NeuePosition 188</name>
            </trkpt>
            <trkpt lon="7.165703773498535" lat="49.911654332464146">
                <ele>331.0</ele>
                <time>2011-11-06T16:31:00.556Z</time>
                <name>NeuePosition 189</name>
            </trkpt>
            <trkpt lon="7.165725231170654" lat="49.91152996981091">
                <ele>332.0</ele>
                <time>2011-11-06T16:31:02.693Z</time>
                <name>NeuePosition 190</name>
            </trkpt>
            <trkpt lon="7.165757417678833" lat="49.91137106150951">
                <ele>333.0</ele>
                <time>2011-11-06T16:31:05.429Z</time>
                <name>NeuePosition 191</name>
            </trkpt>
            <trkpt lon="7.165703773498535" lat="49.91118451631369">
                <ele>334.0</ele>
                <time>2011-11-06T16:31:08.668Z</time>
                <name>NeuePosition 192</name>
            </trkpt>
            <trkpt lon="7.165639400482178" lat="49.91103251599101">
                <ele>335.0</ele>
                <time>2011-11-06T16:31:11.358Z</time>
                <name>NeuePosition 193</name>
            </trkpt>
            <trkpt lon="7.1655964851379395" lat="49.91089433346378">
                <ele>335.0</ele>
                <time>2011-11-06T16:31:13.763Z</time>
                <name>NeuePosition 194</name>
            </trkpt>
            <trkpt lon="7.16558575630188" lat="49.91076996885076">
                <ele>336.0</ele>
                <time>2011-11-06T16:31:15.888Z</time>
                <name>NeuePosition 195</name>
            </trkpt>
            <trkpt lon="7.16557502746582" lat="49.910652513088465">
                <ele>338.0</ele>
                <time>2011-11-06T16:31:17.895Z</time>
                <name>NeuePosition 196</name>
            </trkpt>
            <trkpt lon="7.165532112121582" lat="49.91052123866266">
                <ele>339.0</ele>
                <time>2011-11-06T16:31:20.183Z</time>
                <name>NeuePosition 197</name>
            </trkpt>
            <trkpt lon="7.165489196777344" lat="49.910410691500644">
                <ele>341.0</ele>
                <time>2011-11-06T16:31:22.126Z</time>
                <name>NeuePosition 198</name>
            </trkpt>
            <trkpt lon="7.1655213832855225" lat="49.91038305467054">
                <ele>341.0</ele>
                <time>2011-11-06T16:31:22.715Z</time>
                <name>NeuePosition 199</name>
            </trkpt>
            <trkpt lon="7.165725231170654" lat="49.91059723968957">
                <ele>339.0</ele>
                <time>2011-11-06T16:31:26.997Z</time>
                <name>NeuePosition 200</name>
            </trkpt>
            <trkpt lon="7.165939807891846" lat="49.910818332905045">
                <ele>340.0</ele>
                <time>2011-11-06T16:31:31.441Z</time>
                <name>NeuePosition 201</name>
            </trkpt>
            <trkpt lon="7.166229486465454" lat="49.911004879517236">
                <ele>347.0</ele>
                <time>2011-11-06T16:31:35.940Z</time>
                <name>NeuePosition 202</name>
            </trkpt>
            <trkpt lon="7.166465520858765" lat="49.91110160710616">
                <ele>353.0</ele>
                <time>2011-11-06T16:31:39.014Z</time>
                <name>NeuePosition 203</name>
            </trkpt>
            <trkpt lon="7.166851758956909" lat="49.91121215268452">
                <ele>363.0</ele>
                <time>2011-11-06T16:31:43.659Z</time>
                <name>NeuePosition 204</name>
            </trkpt>
            <trkpt lon="7.167195081710815" lat="49.911315788934125">
                <ele>370.0</ele>
                <time>2011-11-06T16:31:47.825Z</time>
                <name>NeuePosition 205</name>
            </trkpt>
            <trkpt lon="7.167527675628662" lat="49.911419424961025">
                <ele>377.0</ele>
                <time>2011-11-06T16:31:51.884Z</time>
                <name>NeuePosition 206</name>
            </trkpt>
            <trkpt lon="7.167946100234985" lat="49.91155760598378">
                <ele>382.0</ele>
                <time>2011-11-06T16:31:57.049Z</time>
                <name>NeuePosition 207</name>
            </trkpt>
            <trkpt lon="7.168611288070679" lat="49.9117856038058">
                <ele>388.0</ele>
                <time>2011-11-06T16:32:05.325Z</time>
                <name>NeuePosition 208</name>
            </trkpt>
            <trkpt lon="7.169094085693359" lat="49.911944510741286">
                <ele>390.0</ele>
                <time>2011-11-06T16:32:11.280Z</time>
                <name>NeuePosition 209</name>
            </trkpt>
            <trkpt lon="7.169533967971802" lat="49.91212414403788">
                <ele>392.0</ele>
                <time>2011-11-06T16:32:16.999Z</time>
                <name>NeuePosition 210</name>
            </trkpt>
            <trkpt lon="7.169866561889648" lat="49.912289958794716">
                <ele>393.0</ele>
                <time>2011-11-06T16:32:21.616Z</time>
                <name>NeuePosition 211</name>
            </trkpt>
            <trkpt lon="7.170220613479614" lat="49.912428137323225">
                <ele>395.0</ele>
                <time>2011-11-06T16:32:26.161Z</time>
                <name>NeuePosition 212</name>
            </trkpt>
            <trkpt lon="7.170531749725342" lat="49.91258013324735">
                <ele>398.0</ele>
                <time>2011-11-06T16:32:30.447Z</time>
                <name>NeuePosition 213</name>
            </trkpt>
            <trkpt lon="7.170810699462891" lat="49.91266994879551">
                <ele>401.0</ele>
                <time>2011-11-06T16:32:33.871Z</time>
                <name>NeuePosition 214</name>
            </trkpt>
            <trkpt lon="7.171036005020142" lat="49.91272521981893">
                <ele>402.0</ele>
                <time>2011-11-06T16:32:36.518Z</time>
                <name>NeuePosition 215</name>
            </trkpt>
            <trkpt lon="7.171304225921631" lat="49.912780490779">
                <ele>404.0</ele>
                <time>2011-11-06T16:32:39.610Z</time>
                <name>NeuePosition 216</name>
            </trkpt>
            <trkpt lon="7.171604633331299" lat="49.912870305954016">
                <ele>405.0</ele>
                <time>2011-11-06T16:32:43.245Z</time>
                <name>NeuePosition 217</name>
            </trkpt>
            <trkpt lon="7.1718621253967285" lat="49.91290485020756">
                <ele>407.0</ele>
                <time>2011-11-06T16:32:46.132Z</time>
                <name>NeuePosition 218</name>
            </trkpt>
            <trkpt lon="7.172108888626099" lat="49.91296012096176">
                <ele>408.0</ele>
                <time>2011-11-06T16:32:48.999Z</time>
                <name>NeuePosition 219</name>
            </trkpt>
            <trkpt lon="7.172280550003052" lat="49.91298084747826">
                <ele>409.0</ele>
                <time>2011-11-06T16:32:50.915Z</time>
                <name>NeuePosition 220</name>
            </trkpt>
            <trkpt lon="7.17257022857666" lat="49.91299466515098">
                <ele>410.0</ele>
                <time>2011-11-06T16:32:54.101Z</time>
                <name>NeuePosition 221</name>
            </trkpt>
            <trkpt lon="7.172720432281494" lat="49.91298775631512">
                <ele>411.0</ele>
                <time>2011-11-06T16:32:55.752Z</time>
                <name>NeuePosition 222</name>
            </trkpt>
            <trkpt lon="7.173031568527222" lat="49.9129255767478">
                <ele>412.0</ele>
                <time>2011-11-06T16:32:59.322Z</time>
                <name>NeuePosition 223</name>
            </trkpt>
            <trkpt lon="7.173181772232056" lat="49.912884123658394">
                <ele>412.0</ele>
                <time>2011-11-06T16:33:01.112Z</time>
                <name>NeuePosition 224</name>
            </trkpt>
            <trkpt lon="7.173407077789307" lat="49.91281503509687">
                <ele>413.0</ele>
                <time>2011-11-06T16:33:03.845Z</time>
                <name>NeuePosition 225</name>
            </trkpt>
            <trkpt lon="7.173707485198975" lat="49.912690675436714">
                <ele>413.0</ele>
                <time>2011-11-06T16:33:07.755Z</time>
                <name>NeuePosition 226</name>
            </trkpt>
            <trkpt lon="7.173932790756226" lat="49.91262158659805">
                <ele>413.0</ele>
                <time>2011-11-06T16:33:10.487Z</time>
                <name>NeuePosition 227</name>
            </trkpt>
            <trkpt lon="7.17408299446106" lat="49.91253177095982">
                <ele>413.0</ele>
                <time>2011-11-06T16:33:12.729Z</time>
                <name>NeuePosition 228</name>
            </trkpt>
            <trkpt lon="7.174286842346191" lat="49.912469590804584">
                <ele>413.0</ele>
                <time>2011-11-06T16:33:15.198Z</time>
                <name>NeuePosition 229</name>
            </trkpt>
            <trkpt lon="7.174479961395264" lat="49.912393592728215">
                <ele>412.0</ele>
                <time>2011-11-06T16:33:17.674Z</time>
                <name>NeuePosition 230</name>
            </trkpt>
            <trkpt lon="7.174619436264038" lat="49.91233141239485">
                <ele>411.0</ele>
                <time>2011-11-06T16:33:19.529Z</time>
                <name>NeuePosition 231</name>
            </trkpt>
            <trkpt lon="7.174780368804932" lat="49.912248505158935">
                <ele>410.0</ele>
                <time>2011-11-06T16:33:21.782Z</time>
                <name>NeuePosition 232</name>
            </trkpt>
            <trkpt lon="7.174855470657349" lat="49.912207051487556">
                <ele>410.0</ele>
                <time>2011-11-06T16:33:22.863Z</time>
                <name>NeuePosition 233</name>
            </trkpt>
            <trkpt lon="7.174973487854004" lat="49.91217941568683">
                <ele>409.0</ele>
                <time>2011-11-06T16:33:24.236Z</time>
                <name>NeuePosition 234</name>
            </trkpt>
            <trkpt lon="7.175155878067017" lat="49.912193233589164">
                <ele>409.0</ele>
                <time>2011-11-06T16:33:26.244Z</time>
                <name>NeuePosition 235</name>
            </trkpt>
            <trkpt lon="7.175509929656982" lat="49.91220014253884">
                <ele>409.0</ele>
                <time>2011-11-06T16:33:30.200Z</time>
                <name>NeuePosition 236</name>
            </trkpt>
            <trkpt lon="7.17581033706665" lat="49.91225541410072">
                <ele>409.0</ele>
                <time>2011-11-06T16:33:33.688Z</time>
                <name>NeuePosition 237</name>
            </trkpt>
            <trkpt lon="7.1760571002960205" lat="49.912283049857884">
                <ele>410.0</ele>
                <time>2011-11-06T16:33:36.484Z</time>
                <name>NeuePosition 238</name>
            </trkpt>
            <trkpt lon="7.176303863525391" lat="49.912296867730525">
                <ele>411.0</ele>
                <time>2011-11-06T16:33:39.249Z</time>
                <name>NeuePosition 239</name>
            </trkpt>
            <trkpt lon="7.176604270935059" lat="49.91233832132473">
                <ele>413.0</ele>
                <time>2011-11-06T16:33:42.678Z</time>
                <name>NeuePosition 240</name>
            </trkpt>
            <trkpt lon="7.176883220672607" lat="49.91233832132473">
                <ele>414.0</ele>
                <time>2011-11-06T16:33:45.791Z</time>
                <name>NeuePosition 241</name>
            </trkpt>
            <trkpt lon="7.177087068557739" lat="49.912393592728215">
                <ele>416.0</ele>
                <time>2011-11-06T16:33:48.258Z</time>
                <name>NeuePosition 242</name>
            </trkpt>
            <trkpt lon="7.177258729934692" lat="49.912517953154484">
                <ele>417.0</ele>
                <time>2011-11-06T16:33:51.136Z</time>
                <name>NeuePosition 243</name>
            </trkpt>
            <trkpt lon="7.177484035491943" lat="49.912745946436374">
                <ele>420.0</ele>
                <time>2011-11-06T16:33:55.808Z</time>
                <name>NeuePosition 244</name>
            </trkpt>
            <trkpt lon="7.1776556968688965" lat="49.91298775631512">
                <ele>422.0</ele>
                <time>2011-11-06T16:34:00.403Z</time>
                <name>NeuePosition 245</name>
            </trkpt>
            <trkpt lon="7.17781662940979" lat="49.91313284166036">
                <ele>423.0</ele>
                <time>2011-11-06T16:34:03.485Z</time>
                <name>NeuePosition 246</name>
            </trkpt>
            <trkpt lon="7.177988290786743" lat="49.91320883857178">
                <ele>424.0</ele>
                <time>2011-11-06T16:34:05.806Z</time>
                <name>NeuePosition 247</name>
            </trkpt>
            <trkpt lon="7.177977561950684" lat="49.914314234652274">
                <ele>430.0</ele>
                <time>2011-11-06T16:34:24.895Z</time>
                <name>NeuePosition 248</name>
            </trkpt>
            <trkpt lon="7.177891731262207" lat="49.91517089918691">
                <ele>435.0</ele>
                <time>2011-11-06T16:34:39.719Z</time>
                <name>NeuePosition 249</name>
            </trkpt>
            <trkpt lon="7.177923917770386" lat="49.915910105545365">
                <ele>439.0</ele>
                <time>2011-11-06T16:34:53.559Z</time>
                <name>NeuePosition 250</name>
            </trkpt>
            <trkpt lon="7.177902460098267" lat="49.916269341926984">
                <ele>439.0</ele>
                <time>2011-11-06T16:34:59.364Z</time>
                <name>NeuePosition 251</name>
            </trkpt>
            <trkpt lon="7.177784442901611" lat="49.91655949243529">
                <ele>436.0</ele>
                <time>2011-11-06T16:35:12.371Z</time>
                <name>NeuePosition 252</name>
            </trkpt>
            <trkpt lon="7.177644968032837" lat="49.91702925622328">
                <ele>436.0</ele>
                <time>2011-11-06T16:35:33.109Z</time>
                <name>NeuePosition 253</name>
            </trkpt>
            <trkpt lon="7.1775054931640625" lat="49.917450658080085">
                <ele>432.0</ele>
                <time>2011-11-06T16:35:51.791Z</time>
                <name>NeuePosition 254</name>
            </trkpt>
            <trkpt lon="7.177387475967407" lat="49.91788587252531">
                <ele>428.0</ele>
                <time>2011-11-06T16:36:10.946Z</time>
                <name>NeuePosition 255</name>
            </trkpt>
            <trkpt lon="7.177237272262573" lat="49.91832799111402">
                <ele>424.0</ele>
                <time>2011-11-06T16:36:30.568Z</time>
                <name>NeuePosition 256</name>
            </trkpt>
            <trkpt lon="7.176947593688965" lat="49.91935037482338">
                <ele>415.0</ele>
                <time>2011-11-06T16:37:15.624Z</time>
                <name>NeuePosition 257</name>
            </trkpt>
            <trkpt lon="7.176872491836548" lat="49.91955070422628">
                <ele>412.0</ele>
                <time>2011-11-06T16:12:56.719Z</time>
                <name>NeuePosition 258</name>
            </trkpt>
            <trkpt lon="7.176765203475952" lat="49.91998589971606">
                <ele>412.0</ele>
                <time>2011-11-06T16:12:29.914Z</time>
                <name>NeuePosition 259</name>
            </trkpt>
            <trkpt lon="7.176679372787476" lat="49.92035892129503">
                <ele>415.0</ele>
                <time>2011-11-06T16:12:16.511Z</time>
                <name>NeuePosition 260</name>
            </trkpt>
            <trkpt lon="7.176614999771118" lat="49.920662862669985">
                <ele>414.0</ele>
                <time>2011-11-06T16:12:09.810Z</time>
                <name>NeuePosition 261</name>
            </trkpt>
            <trkpt lon="7.1765077114105225" lat="49.9209598944351">
                <ele>413.0</ele>
                <time>2011-11-06T16:12:06.459Z</time>
                <name>NeuePosition 262</name>
            </trkpt>
            <trkpt lon="7.176368236541748" lat="49.92109804812097">
                <ele>413.0</ele>
                <time>2011-11-06T16:12:04.784Z</time>
                <name>NeuePosition 263</name>
            </trkpt>
            <trkpt lon="7.176196575164795" lat="49.92122929375582">
                <ele>412.0</ele>
                <time>2011-11-06T16:12:03.946Z</time>
                <name>NeuePosition 264</name>
            </trkpt>
            <trkpt lon="7.176014184951782" lat="49.921284554968864">
                <ele>412.0</ele>
                <time>2011-11-06T16:12:03.527Z</time>
                <name>NeuePosition 265</name>
            </trkpt>
            <trkpt lon="7.17581033706665" lat="49.921367446669656">
                <ele>411.0</ele>
                <time>2011-11-06T16:12:03.318Z</time>
                <name>NeuePosition 266</name>
            </trkpt>
            <trkpt lon="7.175627946853638" lat="49.92143652297815">
                <ele>410.0</ele>
                <time>2011-11-06T16:12:03.213Z</time>
                <name>NeuePosition 267</name>
            </trkpt>
            <trkpt lon="7.175445556640625" lat="49.92149869157115">
                <ele>410.0</ele>
                <time>2011-11-06T16:12:03.161Z</time>
                <name>NeuePosition 268</name>
            </trkpt>
            <trkpt lon="7.175220251083374" lat="49.92156776769156">
                <ele>409.0</ele>
                <time>2011-11-06T16:12:03.135Z</time>
                <name>NeuePosition 269</name>
            </trkpt>
            <trkpt lon="7.175048589706421" lat="49.921636843713024">
                <ele>408.0</ele>
                <time>2011-11-06T16:12:03.122Z</time>
                <name>NeuePosition 270</name>
            </trkpt>
            <trkpt lon="7.175016403198242" lat="49.921754272722346">
                <ele>408.0</ele>
                <time>2011-11-06T16:12:03.115Z</time>
                <name>NeuePosition 271</name>
            </trkpt>
            <trkpt lon="7.175198793411255" lat="49.92190623925102">
                <ele>407.0</ele>
                <time>2011-11-06T16:12:03.112Z</time>
                <name>NeuePosition 272</name>
            </trkpt>
            <trkpt lon="7.175402641296387" lat="49.92197531478751">
                <ele>408.0</ele>
                <time>2011-11-06T16:12:03.110Z</time>
                <name>NeuePosition 273</name>
            </trkpt>
            <trkpt lon="7.175552845001221" lat="49.92205129776332">
                <ele>408.0</ele>
                <time>2011-11-06T16:12:03.109Z</time>
                <name>NeuePosition 274</name>
            </trkpt>
            <trkpt lon="7.175735235214233" lat="49.92215491071918">
                <ele>409.0</ele>
                <time>2011-11-06T16:12:03.109Z</time>
                <name>NeuePosition 275</name>
            </trkpt>
            <trkpt lon="7.175788879394531" lat="49.92217563328365">
                <ele>409.0</ele>
                <time>2011-11-06T16:12:03.109Z</time>
                <name>NeuePosition 276</name>
            </trkpt>
            <trkpt lon="7.175917625427246" lat="49.92219635583919">
                <ele>409.0</ele>
                <time>2011-11-06T16:12:03.109Z</time>
                <name>NeuePosition 277</name>
            </trkpt>
            <trkpt lon="7.176024913787842" lat="49.92219635583919">
                <ele>409.0</ele>
                <time>2011-11-06T16:12:03.109Z</time>
                <name>NeuePosition 278</name>
            </trkpt>
            <trkpt lon="7.176110744476318" lat="49.92219635583919">
                <ele>410.0</ele>
                <time>2011-11-06T16:12:03.109Z</time>
                <name>NeuePosition 279</name>
            </trkpt>
            <trkpt lon="7.1762824058532715" lat="49.92217563328365">
                <ele>410.0</ele>
                <time>2011-11-06T16:12:03.109Z</time>
                <name>NeuePosition 280</name>
            </trkpt>
            <trkpt lon="7.176464796066284" lat="49.922134188145826">
                <ele>411.0</ele>
                <time>2011-11-06T16:12:03.109Z</time>
                <name>NeuePosition 281</name>
            </trkpt>
            <trkpt lon="7.176690101623535" lat="49.92210655803417">
                <ele>411.0</ele>
                <time>2011-11-06T16:12:03.109Z</time>
                <name>NeuePosition 282</name>
            </trkpt>
            <trkpt lon="7.17681884765625" lat="49.92204439022502">
                <ele>412.0</ele>
                <time>2011-11-06T16:12:03.109Z</time>
                <name>NeuePosition 283</name>
            </trkpt>
            <trkpt lon="7.1769797801971436" lat="49.921954592136956">
                <ele>412.0</ele>
                <time>2011-11-06T16:12:03.109Z</time>
                <name>NeuePosition 284</name>
            </trkpt>
            <trkpt lon="7.177097797393799" lat="49.921892424131826">
                <ele>413.0</ele>
                <time>2011-11-06T16:12:03.109Z</time>
                <name>NeuePosition 285</name>
            </trkpt>
            <trkpt lon="7.177237272262573" lat="49.921823348476586">
                <ele>413.0</ele>
                <time>2011-11-06T16:12:03.109Z</time>
                <name>NeuePosition 286</name>
            </trkpt>
            <trkpt lon="7.177344560623169" lat="49.92179571818677">
                <ele>414.0</ele>
                <time>2011-11-06T16:12:03.109Z</time>
                <name>NeuePosition 287</name>
            </trkpt>
            <trkpt lon="7.177516222000122" lat="49.92176808788111">
                <ele>414.0</ele>
                <time>2011-11-06T16:12:03.109Z</time>
                <name>NeuePosition 288</name>
            </trkpt>
            <trkpt lon="7.177623510360718" lat="49.92178881061184">
                <ele>415.0</ele>
                <time>2011-11-06T16:12:03.109Z</time>
                <name>NeuePosition 289</name>
            </trkpt>
            <trkpt lon="7.177698612213135" lat="49.921899331691904">
                <ele>415.0</ele>
                <time>2011-11-06T16:12:03.109Z</time>
                <name>NeuePosition 290</name>
            </trkpt>
            <trkpt lon="7.177752256393433" lat="49.922016760061894">
                <ele>415.0</ele>
                <time>2011-11-06T16:12:03.109Z</time>
                <name>NeuePosition 291</name>
            </trkpt>
            <trkpt lon="7.177762985229492" lat="49.92214109567128">
                <ele>415.0</ele>
                <time>2011-11-06T16:12:03.109Z</time>
                <name>NeuePosition 292</name>
            </trkpt>
            <trkpt lon="7.177623510360718" lat="49.92227233846664">
                <ele>415.0</ele>
                <time>2011-11-06T16:12:03.109Z</time>
                <name>NeuePosition 293</name>
            </trkpt>
            <trkpt lon="7.177494764328003" lat="49.922375950947426">
                <ele>414.0</ele>
                <time>2011-11-06T16:12:03.109Z</time>
                <name>NeuePosition 294</name>
            </trkpt>
            <trkpt lon="7.1774303913116455" lat="49.92245193329181">
                <ele>414.0</ele>
                <time>2011-11-06T16:12:03.109Z</time>
                <name>NeuePosition 295</name>
            </trkpt>
            <trkpt lon="7.177398204803467" lat="49.92251410057544">
                <ele>413.0</ele>
                <time>2011-11-06T16:12:03.109Z</time>
                <name>NeuePosition 296</name>
            </trkpt>
            <trkpt lon="7.177376747131348" lat="49.922583175240966">
                <ele>413.0</ele>
                <time>2011-11-06T16:12:03.109Z</time>
                <name>NeuePosition 297</name>
            </trkpt>
            <trkpt lon="7.177344560623169" lat="49.922659157258735">
                <ele>413.0</ele>
                <time>2011-11-06T16:12:03.109Z</time>
                <name>NeuePosition 298</name>
            </trkpt>
            <trkpt lon="7.177269458770752" lat="49.92272132427512">
                <ele>413.0</ele>
                <time>2011-11-06T16:12:03.109Z</time>
                <name>NeuePosition 299</name>
            </trkpt>
            <trkpt lon="7.177226543426514" lat="49.92277658377797">
                <ele>412.0</ele>
                <time>2011-11-06T16:12:03.109Z</time>
                <name>NeuePosition 300</name>
            </trkpt>
            <trkpt lon="7.177119255065918" lat="49.922880195175004">
                <ele>412.0</ele>
                <time>2011-11-06T16:12:03.109Z</time>
                <name>NeuePosition 301</name>
            </trkpt>
            <trkpt lon="7.177087068557739" lat="49.922956176724675">
                <ele>412.0</ele>
                <time>2011-11-06T16:12:03.109Z</time>
                <name>NeuePosition 302</name>
            </trkpt>
            <trkpt lon="7.177087068557739" lat="49.92305288034192">
                <ele>412.0</ele>
                <time>2011-11-06T16:12:03.109Z</time>
                <name>NeuePosition 303</name>
            </trkpt>
            <trkpt lon="7.177097797393799" lat="49.92315649114516">
                <ele>411.0</ele>
                <time>2011-11-06T16:12:03.109Z</time>
                <name>NeuePosition 304</name>
            </trkpt>
            <trkpt lon="7.177097797393799" lat="49.92320484277714">
                <ele>411.0</ele>
                <time>2011-11-06T16:12:03.109Z</time>
                <name>NeuePosition 305</name>
            </trkpt>
            <trkpt lon="7.17707633972168" lat="49.92327391645298">
                <ele>411.0</ele>
                <time>2011-11-06T16:12:03.109Z</time>
                <name>NeuePosition 306</name>
            </trkpt>
            <trkpt lon="7.1770548820495605" lat="49.923363712083585">
                <ele>411.0</ele>
                <time>2011-11-06T16:12:03.109Z</time>
                <name>NeuePosition 307</name>
            </trkpt>
            <trkpt lon="7.176958322525024" lat="49.92343278553177">
                <ele>411.0</ele>
                <time>2011-11-06T16:12:03.109Z</time>
                <name>NeuePosition 308</name>
            </trkpt>
            <trkpt lon="7.176883220672607" lat="49.92350876621048">
                <ele>410.0</ele>
                <time>2011-11-06T16:12:03.109Z</time>
                <name>NeuePosition 309</name>
            </trkpt>
            <trkpt lon="7.176722288131714" lat="49.92358474676943">
                <ele>410.0</ele>
                <time>2011-11-06T16:12:03.109Z</time>
                <name>NeuePosition 310</name>
            </trkpt>
            <trkpt lon="7.176604270935059" lat="49.92368835642955">
                <ele>410.0</ele>
                <time>2011-11-06T16:12:03.109Z</time>
                <name>NeuePosition 311</name>
            </trkpt>
            <trkpt lon="7.1765828132629395" lat="49.92375052211875">
                <ele>409.0</ele>
                <time>2011-11-06T16:12:03.109Z</time>
                <name>NeuePosition 312</name>
            </trkpt>
            <trkpt lon="7.176733016967773" lat="49.92391629689797">
                <ele>409.0</ele>
                <time>2011-11-06T16:12:03.109Z</time>
                <name>NeuePosition 313</name>
            </trkpt>
            <trkpt lon="7.176840305328369" lat="49.92399918407382">
                <ele>410.0</ele>
                <time>2011-11-06T16:12:03.109Z</time>
                <name>NeuePosition 314</name>
            </trkpt>
            <trkpt lon="7.17707633972168" lat="49.92413732905018">
                <ele>410.0</ele>
                <time>2011-11-06T16:12:03.109Z</time>
                <name>NeuePosition 315</name>
            </trkpt>
            <trkpt lon="7.177344560623169" lat="49.92432382414031">
                <ele>410.0</ele>
                <time>2011-11-06T16:12:03.109Z</time>
                <name>NeuePosition 316</name>
            </trkpt>
            <trkpt lon="7.1775805950164795" lat="49.92446196818634">
                <ele>411.0</ele>
                <time>2011-11-06T16:12:03.109Z</time>
                <name>NeuePosition 317</name>
            </trkpt>
            <trkpt lon="7.178149223327637" lat="49.92457248313815">
                <ele>411.0</ele>
                <time>2011-11-06T16:12:03.109Z</time>
                <name>NeuePosition 318</name>
            </trkpt>
            <trkpt lon="7.179415225982666" lat="49.924648462020535">
                <ele>413.0</ele>
                <time>2011-11-06T16:12:03.109Z</time>
                <name>NeuePosition 319</name>
            </trkpt>
            <trkpt lon="7.180670499801636" lat="49.924731347937495">
                <ele>416.0</ele>
                <time>2011-11-06T16:12:03.109Z</time>
                <name>NeuePosition 320</name>
            </trkpt>
            <trkpt lon="7.181754112243652" lat="49.924828047993785">
                <ele>419.0</ele>
                <time>2011-11-06T16:12:03.109Z</time>
                <name>NeuePosition 321</name>
            </trkpt>
            <trkpt lon="7.182354927062988" lat="49.92491093360196">
                <ele>421.0</ele>
                <time>2011-11-06T16:12:03.109Z</time>
                <name>NeuePosition 322</name>
            </trkpt>
            <trkpt lon="7.182891368865967" lat="49.925049075965504">
                <ele>424.0</ele>
                <time>2011-11-06T16:12:03.109Z</time>
                <name>NeuePosition 323</name>
            </trkpt>
        </trkseg>
    </trk>
    <trk>
        <name>Neue Positionsliste 3</name>
        <trkseg/>
    </trk>
</gpx>
